sensor_id;sensor_type;location;lat;lon;timestamp;P1;durP1;ratioP1;P2;durP2;ratioP2
67867;SDS011;54672;46.096;14.470;2023-04-29T00:01:03;5.72;;;3.28;;
67867;SDS011;54672;46.096;14.470;2023-04-29T00:03:29;5.53;;;3.08;;
67867;SDS011;54672;46.096;14.470;2023-04-29T00:05:56;5.57;;;2.78;;
67867;SDS011;54672;46.096;14.470;2023-04-29T00:08:22;5.30;;;2.70;;
67867;SDS011;54672;46.096;14.470;2023-04-29T00:10:48;5.32;;;2.95;;
67867;SDS011;54672;46.096;14.470;2023-04-29T00:13:14;5.13;;;3.05;;
67867;SDS011;54672;46.096;14.470;2023-04-29T00:15:40;8.15;;;3.13;;
67867;SDS011;54672;46.096;14.470;2023-04-29T00:18:05;6.38;;;3.20;;
67867;SDS011;54672;46.096;14.470;2023-04-29T00:20:31;6.45;;;3.67;;
67867;SDS011;54672;46.096;14.470;2023-04-29T00:22:56;10.40;;;3.75;;
67867;SDS011;54672;46.096;14.470;2023-04-29T00:25:22;5.60;;;3.60;;
67867;SDS011;54672;46.096;14.470;2023-04-29T00:27:47;6.50;;;4.47;;
67867;SDS011;54672;46.096;14.470;2023-04-29T00:30:13;9.85;;;5.00;;
67867;SDS011;54672;46.096;14.470;2023-04-29T00:32:38;7.55;;;4.07;;
67867;SDS011;54672;46.096;14.470;2023-04-29T00:35:04;5.03;;;3.33;;
67867;SDS011;54672;46.096;14.470;2023-04-29T00:37:30;9.98;;;4.00;;
67867;SDS011;54672;46.096;14.470;2023-04-29T00:39:56;5.25;;;3.30;;
67867;SDS011;54672;46.096;14.470;2023-04-29T00:42:21;7.45;;;4.13;;
67867;SDS011;54672;46.096;14.470;2023-04-29T00:44:48;8.55;;;3.83;;
67867;SDS011;54672;46.096;14.470;2023-04-29T00:47:13;5.47;;;3.13;;
67867;SDS011;54672;46.096;14.470;2023-04-29T00:49:38;6.47;;;3.38;;
67867;SDS011;54672;46.096;14.470;2023-04-29T00:52:04;9.68;;;3.97;;
67867;SDS011;54672;46.096;14.470;2023-04-29T00:54:32;5.93;;;3.75;;
67867;SDS011;54672;46.096;14.470;2023-04-29T00:56:58;7.75;;;4.47;;
67867;SDS011;54672;46.096;14.470;2023-04-29T00:59:25;9.93;;;4.43;;
67867;SDS011;54672;46.096;14.470;2023-04-29T01:01:56;7.15;;;4.07;;
67867;SDS011;54672;46.096;14.470;2023-04-29T01:04:26;9.98;;;4.15;;
67867;SDS011;54672;46.096;14.470;2023-04-29T01:10:01;8.43;;;4.75;;
67867;SDS011;54672;46.096;14.470;2023-04-29T01:15:20;8.07;;;4.75;;
67867;SDS011;54672;46.096;14.470;2023-04-29T01:20:31;6.37;;;4.23;;
67867;SDS011;54672;46.096;14.470;2023-04-29T01:22:57;13.02;;;4.75;;
67867;SDS011;54672;46.096;14.470;2023-04-29T01:25:22;9.68;;;5.10;;
67867;SDS011;54672;46.096;14.470;2023-04-29T01:27:52;7.68;;;4.32;;
67867;SDS011;54672;46.096;14.470;2023-04-29T01:33:48;7.55;;;4.40;;
67867;SDS011;54672;46.096;14.470;2023-04-29T01:36:27;9.63;;;4.28;;
67867;SDS011;54672;46.096;14.470;2023-04-29T01:39:13;8.45;;;4.20;;
67867;SDS011;54672;46.096;14.470;2023-04-29T01:41:52;6.47;;;3.63;;
67867;SDS011;54672;46.096;14.470;2023-04-29T01:44:38;5.30;;;3.53;;
67867;SDS011;54672;46.096;14.470;2023-04-29T01:47:06;8.77;;;3.90;;
67867;SDS011;54672;46.096;14.470;2023-04-29T01:49:37;8.60;;;4.32;;
67867;SDS011;54672;46.096;14.470;2023-04-29T01:52:03;5.97;;;3.88;;
67867;SDS011;54672;46.096;14.470;2023-04-29T01:54:30;7.15;;;4.25;;
67867;SDS011;54672;46.096;14.470;2023-04-29T01:56:56;9.20;;;4.38;;
67867;SDS011;54672;46.096;14.470;2023-04-29T01:59:22;8.50;;;4.18;;
67867;SDS011;54672;46.096;14.470;2023-04-29T02:01:48;8.85;;;4.55;;
67867;SDS011;54672;46.096;14.470;2023-04-29T02:04:13;7.20;;;4.18;;
67867;SDS011;54672;46.096;14.470;2023-04-29T02:06:39;8.13;;;4.07;;
67867;SDS011;54672;46.096;14.470;2023-04-29T02:09:04;7.35;;;3.92;;
67867;SDS011;54672;46.096;14.470;2023-04-29T02:11:30;6.75;;;3.78;;
67867;SDS011;54672;46.096;14.470;2023-04-29T02:13:56;5.13;;;3.45;;
67867;SDS011;54672;46.096;14.470;2023-04-29T02:16:22;7.07;;;3.28;;
67867;SDS011;54672;46.096;14.470;2023-04-29T02:18:48;6.57;;;3.80;;
67867;SDS011;54672;46.096;14.470;2023-04-29T02:21:13;12.27;;;3.63;;
67867;SDS011;54672;46.096;14.470;2023-04-29T02:23:38;5.88;;;3.40;;
67867;SDS011;54672;46.096;14.470;2023-04-29T02:26:04;5.22;;;3.20;;
67867;SDS011;54672;46.096;14.470;2023-04-29T02:28:30;6.20;;;2.92;;
67867;SDS011;54672;46.096;14.470;2023-04-29T02:30:56;7.38;;;3.08;;
67867;SDS011;54672;46.096;14.470;2023-04-29T02:33:21;5.50;;;3.20;;
67867;SDS011;54672;46.096;14.470;2023-04-29T02:35:47;6.10;;;3.75;;
67867;SDS011;54672;46.096;14.470;2023-04-29T02:38:12;4.93;;;3.28;;
67867;SDS011;54672;46.096;14.470;2023-04-29T02:40:41;7.63;;;3.50;;
67867;SDS011;54672;46.096;14.470;2023-04-29T02:43:07;6.45;;;3.83;;
67867;SDS011;54672;46.096;14.470;2023-04-29T02:45:34;6.00;;;3.42;;
67867;SDS011;54672;46.096;14.470;2023-04-29T02:48:00;5.95;;;3.20;;
67867;SDS011;54672;46.096;14.470;2023-04-29T02:50:25;6.50;;;3.35;;
67867;SDS011;54672;46.096;14.470;2023-04-29T02:52:51;9.02;;;3.65;;
67867;SDS011;54672;46.096;14.470;2023-04-29T02:55:16;7.68;;;3.30;;
67867;SDS011;54672;46.096;14.470;2023-04-29T02:57:42;7.63;;;2.90;;
67867;SDS011;54672;46.096;14.470;2023-04-29T03:00:08;5.43;;;3.30;;
67867;SDS011;54672;46.096;14.470;2023-04-29T03:02:35;7.93;;;3.80;;
67867;SDS011;54672;46.096;14.470;2023-04-29T03:05:00;7.07;;;3.60;;
67867;SDS011;54672;46.096;14.470;2023-04-29T03:07:26;7.10;;;3.47;;
67867;SDS011;54672;46.096;14.470;2023-04-29T03:09:52;5.60;;;3.10;;
67867;SDS011;54672;46.096;14.470;2023-04-29T03:12:18;9.07;;;3.58;;
67867;SDS011;54672;46.096;14.470;2023-04-29T03:14:44;6.30;;;3.13;;
67867;SDS011;54672;46.096;14.470;2023-04-29T03:17:09;6.50;;;3.67;;
67867;SDS011;54672;46.096;14.470;2023-04-29T03:19:34;5.88;;;3.55;;
67867;SDS011;54672;46.096;14.470;2023-04-29T03:22:00;6.47;;;3.40;;
67867;SDS011;54672;46.096;14.470;2023-04-29T03:24:25;6.32;;;3.50;;
67867;SDS011;54672;46.096;14.470;2023-04-29T03:26:51;5.55;;;3.50;;
67867;SDS011;54672;46.096;14.470;2023-04-29T03:29:16;7.18;;;4.10;;
67867;SDS011;54672;46.096;14.470;2023-04-29T03:31:41;9.23;;;3.53;;
67867;SDS011;54672;46.096;14.470;2023-04-29T03:34:07;7.05;;;3.67;;
67867;SDS011;54672;46.096;14.470;2023-04-29T03:36:32;5.50;;;3.05;;
67867;SDS011;54672;46.096;14.470;2023-04-29T03:38:58;5.80;;;3.20;;
67867;SDS011;54672;46.096;14.470;2023-04-29T03:41:23;8.10;;;3.47;;
67867;SDS011;54672;46.096;14.470;2023-04-29T03:43:49;7.78;;;3.45;;
67867;SDS011;54672;46.096;14.470;2023-04-29T03:46:15;8.98;;;3.67;;
67867;SDS011;54672;46.096;14.470;2023-04-29T03:48:41;8.40;;;3.63;;
67867;SDS011;54672;46.096;14.470;2023-04-29T03:51:06;8.45;;;3.67;;
67867;SDS011;54672;46.096;14.470;2023-04-29T03:53:33;6.75;;;4.07;;
67867;SDS011;54672;46.096;14.470;2023-04-29T03:55:58;7.03;;;4.07;;
67867;SDS011;54672;46.096;14.470;2023-04-29T03:58:24;5.95;;;3.70;;
67867;SDS011;54672;46.096;14.470;2023-04-29T04:00:49;7.10;;;4.10;;
67867;SDS011;54672;46.096;14.470;2023-04-29T04:03:15;7.60;;;4.32;;
67867;SDS011;54672;46.096;14.470;2023-04-29T04:05:40;6.75;;;3.50;;
67867;SDS011;54672;46.096;14.470;2023-04-29T04:08:06;6.85;;;3.97;;
67867;SDS011;54672;46.096;14.470;2023-04-29T04:10:31;8.45;;;3.80;;
67867;SDS011;54672;46.096;14.470;2023-04-29T04:12:56;9.57;;;3.40;;
67867;SDS011;54672;46.096;14.470;2023-04-29T04:15:22;7.75;;;4.03;;
67867;SDS011;54672;46.096;14.470;2023-04-29T04:17:47;6.65;;;3.78;;
67867;SDS011;54672;46.096;14.470;2023-04-29T04:20:13;8.32;;;3.75;;
67867;SDS011;54672;46.096;14.470;2023-04-29T04:22:38;8.27;;;4.15;;
67867;SDS011;54672;46.096;14.470;2023-04-29T04:25:04;6.50;;;3.90;;
67867;SDS011;54672;46.096;14.470;2023-04-29T04:27:29;7.50;;;3.92;;
67867;SDS011;54672;46.096;14.470;2023-04-29T04:29:55;10.77;;;3.80;;
67867;SDS011;54672;46.096;14.470;2023-04-29T04:32:21;7.20;;;4.10;;
67867;SDS011;54672;46.096;14.470;2023-04-29T04:34:47;5.22;;;3.28;;
67867;SDS011;54672;46.096;14.470;2023-04-29T04:37:13;6.55;;;3.80;;
67867;SDS011;54672;46.096;14.470;2023-04-29T04:39:39;7.15;;;3.90;;
67867;SDS011;54672;46.096;14.470;2023-04-29T04:42:04;9.77;;;4.35;;
67867;SDS011;54672;46.096;14.470;2023-04-29T04:44:30;7.32;;;4.15;;
67867;SDS011;54672;46.096;14.470;2023-04-29T04:46:56;8.52;;;4.10;;
67867;SDS011;54672;46.096;14.470;2023-04-29T04:49:22;8.73;;;4.00;;
67867;SDS011;54672;46.096;14.470;2023-04-29T04:51:49;7.45;;;4.28;;
67867;SDS011;54672;46.096;14.470;2023-04-29T04:54:15;7.70;;;4.05;;
67867;SDS011;54672;46.096;14.470;2023-04-29T04:56:41;7.57;;;4.43;;
67867;SDS011;54672;46.096;14.470;2023-04-29T04:59:06;7.72;;;4.07;;
67867;SDS011;54672;46.096;14.470;2023-04-29T05:01:32;6.88;;;3.60;;
67867;SDS011;54672;46.096;14.470;2023-04-29T05:03:58;6.10;;;4.07;;
67867;SDS011;54672;46.096;14.470;2023-04-29T05:06:24;13.43;;;4.20;;
67867;SDS011;54672;46.096;14.470;2023-04-29T05:08:50;7.68;;;3.75;;
67867;SDS011;54672;46.096;14.470;2023-04-29T05:11:16;7.00;;;3.53;;
67867;SDS011;54672;46.096;14.470;2023-04-29T05:13:42;7.63;;;3.83;;
67867;SDS011;54672;46.096;14.470;2023-04-29T05:16:08;8.10;;;3.92;;
67867;SDS011;54672;46.096;14.470;2023-04-29T05:18:33;5.75;;;3.78;;
67867;SDS011;54672;46.096;14.470;2023-04-29T05:20:59;7.57;;;3.85;;
67867;SDS011;54672;46.096;14.470;2023-04-29T05:23:24;13.68;;;4.65;;
67867;SDS011;54672;46.096;14.470;2023-04-29T05:25:50;5.85;;;3.80;;
67867;SDS011;54672;46.096;14.470;2023-04-29T05:28:16;12.48;;;6.65;;
67867;SDS011;54672;46.096;14.470;2023-04-29T05:30:41;7.03;;;4.35;;
67867;SDS011;54672;46.096;14.470;2023-04-29T05:33:07;9.90;;;4.43;;
67867;SDS011;54672;46.096;14.470;2023-04-29T05:35:33;6.53;;;3.65;;
67867;SDS011;54672;46.096;14.470;2023-04-29T05:37:58;7.15;;;4.00;;
67867;SDS011;54672;46.096;14.470;2023-04-29T05:40:23;8.43;;;3.95;;
67867;SDS011;54672;46.096;14.470;2023-04-29T05:42:49;10.60;;;4.18;;
67867;SDS011;54672;46.096;14.470;2023-04-29T05:45:14;9.80;;;4.57;;
67867;SDS011;54672;46.096;14.470;2023-04-29T05:47:40;9.95;;;4.50;;
67867;SDS011;54672;46.096;14.470;2023-04-29T05:50:05;7.70;;;4.30;;
67867;SDS011;54672;46.096;14.470;2023-04-29T05:52:31;7.50;;;4.63;;
67867;SDS011;54672;46.096;14.470;2023-04-29T05:54:56;10.38;;;5.00;;
67867;SDS011;54672;46.096;14.470;2023-04-29T05:57:22;9.77;;;4.80;;
67867;SDS011;54672;46.096;14.470;2023-04-29T05:59:47;7.88;;;4.43;;
67867;SDS011;54672;46.096;14.470;2023-04-29T06:02:13;7.13;;;4.20;;
67867;SDS011;54672;46.096;14.470;2023-04-29T06:04:38;9.35;;;4.43;;
67867;SDS011;54672;46.096;14.470;2023-04-29T06:07:05;8.95;;;5.20;;
67867;SDS011;54672;46.096;14.470;2023-04-29T06:09:33;7.50;;;4.47;;
67867;SDS011;54672;46.096;14.470;2023-04-29T06:12:00;11.80;;;4.90;;
67867;SDS011;54672;46.096;14.470;2023-04-29T06:14:27;7.47;;;4.35;;
67867;SDS011;54672;46.096;14.470;2023-04-29T06:16:52;9.05;;;4.53;;
67867;SDS011;54672;46.096;14.470;2023-04-29T06:19:18;9.25;;;4.70;;
67867;SDS011;54672;46.096;14.470;2023-04-29T06:21:43;10.02;;;4.75;;
67867;SDS011;54672;46.096;14.470;2023-04-29T06:24:08;8.40;;;4.07;;
67867;SDS011;54672;46.096;14.470;2023-04-29T06:26:34;9.13;;;4.28;;
67867;SDS011;54672;46.096;14.470;2023-04-29T06:28:59;9.50;;;3.58;;
67867;SDS011;54672;46.096;14.470;2023-04-29T06:31:25;7.85;;;3.80;;
67867;SDS011;54672;46.096;14.470;2023-04-29T06:33:51;6.80;;;4.05;;
67867;SDS011;54672;46.096;14.470;2023-04-29T06:36:16;6.55;;;3.72;;
67867;SDS011;54672;46.096;14.470;2023-04-29T06:38:41;7.40;;;3.80;;
67867;SDS011;54672;46.096;14.470;2023-04-29T06:41:07;6.57;;;3.90;;
67867;SDS011;54672;46.096;14.470;2023-04-29T06:43:32;8.50;;;3.78;;
67867;SDS011;54672;46.096;14.470;2023-04-29T06:45:57;5.78;;;3.60;;
67867;SDS011;54672;46.096;14.470;2023-04-29T06:48:23;6.45;;;3.67;;
67867;SDS011;54672;46.096;14.470;2023-04-29T06:50:52;7.68;;;4.22;;
67867;SDS011;54672;46.096;14.470;2023-04-29T06:53:18;6.30;;;4.10;;
67867;SDS011;54672;46.096;14.470;2023-04-29T06:55:44;7.22;;;4.55;;
67867;SDS011;54672;46.096;14.470;2023-04-29T06:58:13;6.95;;;4.25;;
67867;SDS011;54672;46.096;14.470;2023-04-29T07:00:39;7.75;;;4.47;;
67867;SDS011;54672;46.096;14.470;2023-04-29T07:03:04;10.18;;;4.45;;
67867;SDS011;54672;46.096;14.470;2023-04-29T07:05:30;8.70;;;4.35;;
67867;SDS011;54672;46.096;14.470;2023-04-29T07:07:55;8.18;;;4.07;;
67867;SDS011;54672;46.096;14.470;2023-04-29T07:10:21;7.93;;;4.30;;
67867;SDS011;54672;46.096;14.470;2023-04-29T07:12:47;8.60;;;3.80;;
67867;SDS011;54672;46.096;14.470;2023-04-29T07:15:12;7.10;;;4.13;;
67867;SDS011;54672;46.096;14.470;2023-04-29T07:17:37;8.93;;;4.30;;
67867;SDS011;54672;46.096;14.470;2023-04-29T07:20:03;8.10;;;4.18;;
67867;SDS011;54672;46.096;14.470;2023-04-29T07:22:29;6.43;;;4.15;;
67867;SDS011;54672;46.096;14.470;2023-04-29T07:24:54;8.90;;;4.20;;
67867;SDS011;54672;46.096;14.470;2023-04-29T07:27:21;9.02;;;4.43;;
67867;SDS011;54672;46.096;14.470;2023-04-29T07:29:47;8.90;;;4.47;;
67867;SDS011;54672;46.096;14.470;2023-04-29T07:32:12;6.72;;;3.80;;
67867;SDS011;54672;46.096;14.470;2023-04-29T07:34:39;8.10;;;3.60;;
67867;SDS011;54672;46.096;14.470;2023-04-29T07:37:05;6.38;;;3.80;;
67867;SDS011;54672;46.096;14.470;2023-04-29T07:39:30;9.05;;;4.30;;
67867;SDS011;54672;46.096;14.470;2023-04-29T07:41:56;8.70;;;3.53;;
67867;SDS011;54672;46.096;14.470;2023-04-29T07:44:21;4.47;;;3.00;;
67867;SDS011;54672;46.096;14.470;2023-04-29T07:46:47;4.88;;;2.90;;
67867;SDS011;54672;46.096;14.470;2023-04-29T07:49:12;4.43;;;2.60;;
67867;SDS011;54672;46.096;14.470;2023-04-29T07:51:41;5.43;;;3.00;;
67867;SDS011;54672;46.096;14.470;2023-04-29T07:54:07;6.40;;;3.40;;
67867;SDS011;54672;46.096;14.470;2023-04-29T07:56:33;6.55;;;3.75;;
67867;SDS011;54672;46.096;14.470;2023-04-29T07:58:59;5.10;;;3.53;;
67867;SDS011;54672;46.096;14.470;2023-04-29T08:01:27;8.85;;;3.78;;
67867;SDS011;54672;46.096;14.470;2023-04-29T08:03:53;7.32;;;3.28;;
67867;SDS011;54672;46.096;14.470;2023-04-29T08:06:19;6.43;;;3.30;;
67867;SDS011;54672;46.096;14.470;2023-04-29T08:08:46;6.38;;;3.75;;
67867;SDS011;54672;46.096;14.470;2023-04-29T08:11:16;7.55;;;3.60;;
67867;SDS011;54672;46.096;14.470;2023-04-29T08:13:45;6.30;;;3.97;;
67867;SDS011;54672;46.096;14.470;2023-04-29T08:16:11;9.07;;;3.63;;
67867;SDS011;54672;46.096;14.470;2023-04-29T08:18:37;6.57;;;4.10;;
67867;SDS011;54672;46.096;14.470;2023-04-29T08:21:02;7.45;;;3.97;;
67867;SDS011;54672;46.096;14.470;2023-04-29T08:23:28;7.05;;;4.18;;
67867;SDS011;54672;46.096;14.470;2023-04-29T08:25:53;7.47;;;4.20;;
67867;SDS011;54672;46.096;14.470;2023-04-29T08:28:20;6.88;;;4.10;;
67867;SDS011;54672;46.096;14.470;2023-04-29T08:30:46;6.75;;;3.85;;
67867;SDS011;54672;46.096;14.470;2023-04-29T08:33:11;8.35;;;4.50;;
67867;SDS011;54672;46.096;14.470;2023-04-29T08:35:37;11.82;;;5.80;;
67867;SDS011;54672;46.096;14.470;2023-04-29T08:38:06;6.00;;;4.00;;
67867;SDS011;54672;46.096;14.470;2023-04-29T08:40:35;5.18;;;3.58;;
67867;SDS011;54672;46.096;14.470;2023-04-29T08:43:06;6.57;;;3.05;;
67867;SDS011;54672;46.096;14.470;2023-04-29T08:45:34;5.03;;;3.05;;
67867;SDS011;54672;46.096;14.470;2023-04-29T08:48:01;5.65;;;3.35;;
67867;SDS011;54672;46.096;14.470;2023-04-29T08:50:28;5.85;;;2.88;;
67867;SDS011;54672;46.096;14.470;2023-04-29T08:52:55;8.10;;;3.90;;
67867;SDS011;54672;46.096;14.470;2023-04-29T08:55:21;5.57;;;3.60;;
67867;SDS011;54672;46.096;14.470;2023-04-29T08:57:48;4.30;;;2.42;;
67867;SDS011;54672;46.096;14.470;2023-04-29T09:00:14;5.28;;;2.50;;
67867;SDS011;54672;46.096;14.470;2023-04-29T09:02:45;4.47;;;2.58;;
67867;SDS011;54672;46.096;14.470;2023-04-29T09:05:12;3.90;;;2.85;;
67867;SDS011;54672;46.096;14.470;2023-04-29T09:07:38;4.18;;;2.78;;
67867;SDS011;54672;46.096;14.470;2023-04-29T09:10:05;6.07;;;3.05;;
67867;SDS011;54672;46.096;14.470;2023-04-29T09:12:31;6.15;;;2.75;;
67867;SDS011;54672;46.096;14.470;2023-04-29T09:14:57;5.00;;;2.90;;
67867;SDS011;54672;46.096;14.470;2023-04-29T09:22:46;8.68;;;2.85;;
67867;SDS011;54672;46.096;14.470;2023-04-29T09:25:16;5.50;;;2.65;;
67867;SDS011;54672;46.096;14.470;2023-04-29T09:27:41;5.53;;;2.65;;
67867;SDS011;54672;46.096;14.470;2023-04-29T09:30:07;6.18;;;2.75;;
67867;SDS011;54672;46.096;14.470;2023-04-29T09:32:33;5.93;;;2.97;;
67867;SDS011;54672;46.096;14.470;2023-04-29T09:37:48;9.98;;;2.90;;
67867;SDS011;54672;46.096;14.470;2023-04-29T09:40:26;4.13;;;2.40;;
67867;SDS011;54672;46.096;14.470;2023-04-29T09:42:58;4.43;;;2.70;;
67867;SDS011;54672;46.096;14.470;2023-04-29T09:45:37;6.40;;;2.70;;
67867;SDS011;54672;46.096;14.470;2023-04-29T09:48:04;5.38;;;2.30;;
67867;SDS011;54672;46.096;14.470;2023-04-29T09:50:32;6.25;;;2.60;;
67867;SDS011;54672;46.096;14.470;2023-04-29T09:53:01;5.80;;;2.50;;
67867;SDS011;54672;46.096;14.470;2023-04-29T09:55:27;4.82;;;2.60;;
67867;SDS011;54672;46.096;14.470;2023-04-29T09:57:53;5.45;;;2.60;;
67867;SDS011;54672;46.096;14.470;2023-04-29T10:00:19;5.78;;;2.50;;
67867;SDS011;54672;46.096;14.470;2023-04-29T10:02:45;4.55;;;2.50;;
67867;SDS011;54672;46.096;14.470;2023-04-29T10:05:13;6.18;;;2.28;;
67867;SDS011;54672;46.096;14.470;2023-04-29T10:07:38;4.57;;;2.50;;
67867;SDS011;54672;46.096;14.470;2023-04-29T10:10:05;4.47;;;2.10;;
67867;SDS011;54672;46.096;14.470;2023-04-29T10:12:33;5.03;;;2.67;;
67867;SDS011;54672;46.096;14.470;2023-04-29T10:17:35;6.10;;;2.80;;
67867;SDS011;54672;46.096;14.470;2023-04-29T10:20:08;5.78;;;2.60;;
67867;SDS011;54672;46.096;14.470;2023-04-29T10:22:39;6.10;;;2.78;;
67867;SDS011;54672;46.096;14.470;2023-04-29T10:25:14;6.32;;;2.40;;
67867;SDS011;54672;46.096;14.470;2023-04-29T10:27:41;4.72;;;2.80;;
67867;SDS011;54672;46.096;14.470;2023-04-29T10:30:08;4.40;;;2.70;;
67867;SDS011;54672;46.096;14.470;2023-04-29T10:32:36;4.65;;;2.88;;
67867;SDS011;54672;46.096;14.470;2023-04-29T10:35:05;5.63;;;2.50;;
67867;SDS011;54672;46.096;14.470;2023-04-29T10:37:34;5.07;;;2.78;;
67867;SDS011;54672;46.096;14.470;2023-04-29T10:40:09;5.85;;;2.67;;
67867;SDS011;54672;46.096;14.470;2023-04-29T10:42:46;4.65;;;2.65;;
67867;SDS011;54672;46.096;14.470;2023-04-29T10:45:18;3.50;;;2.30;;
67867;SDS011;54672;46.096;14.470;2023-04-29T10:50:29;5.88;;;2.60;;
67867;SDS011;54672;46.096;14.470;2023-04-29T10:52:55;3.72;;;2.60;;
67867;SDS011;54672;46.096;14.470;2023-04-29T10:55:22;4.15;;;2.95;;
67867;SDS011;54672;46.096;14.470;2023-04-29T10:57:47;8.82;;;2.78;;
67867;SDS011;54672;46.096;14.470;2023-04-29T11:00:32;3.83;;;2.38;;
67867;SDS011;54672;46.096;14.470;2023-04-29T11:03:00;3.80;;;2.75;;
67867;SDS011;54672;46.096;14.470;2023-04-29T11:08:11;5.28;;;2.75;;
67867;SDS011;54672;46.096;14.470;2023-04-29T11:10:40;5.90;;;2.47;;
67867;SDS011;54672;46.096;14.470;2023-04-29T11:16:04;4.43;;;2.83;;
67867;SDS011;54672;46.096;14.470;2023-04-29T11:18:33;4.45;;;2.80;;
67867;SDS011;54672;46.096;14.470;2023-04-29T11:21:21;3.80;;;2.40;;
67867;SDS011;54672;46.096;14.470;2023-04-29T11:23:46;5.85;;;2.67;;
67867;SDS011;54672;46.096;14.470;2023-04-29T11:26:12;5.75;;;2.53;;
67867;SDS011;54672;46.096;14.470;2023-04-29T11:28:37;5.97;;;2.60;;
67867;SDS011;54672;46.096;14.470;2023-04-29T11:31:06;4.38;;;2.63;;
67867;SDS011;54672;46.096;14.470;2023-04-29T11:33:31;4.65;;;2.70;;
67867;SDS011;54672;46.096;14.470;2023-04-29T11:35:57;6.22;;;2.70;;
67867;SDS011;54672;46.096;14.470;2023-04-29T11:38:26;5.35;;;2.58;;
67867;SDS011;54672;46.096;14.470;2023-04-29T11:40:53;4.75;;;3.13;;
67867;SDS011;54672;46.096;14.470;2023-04-29T11:43:20;5.15;;;2.53;;
67867;SDS011;54672;46.096;14.470;2023-04-29T11:45:47;8.30;;;2.88;;
67867;SDS011;54672;46.096;14.470;2023-04-29T11:48:23;6.45;;;2.50;;
67867;SDS011;54672;46.096;14.470;2023-04-29T11:50:50;4.63;;;3.00;;
67867;SDS011;54672;46.096;14.470;2023-04-29T11:53:20;3.95;;;2.83;;
67867;SDS011;54672;46.096;14.470;2023-04-29T11:55:46;4.88;;;2.72;;
67867;SDS011;54672;46.096;14.470;2023-04-29T11:58:15;5.78;;;3.05;;
67867;SDS011;54672;46.096;14.470;2023-04-29T12:00:40;4.85;;;2.75;;
67867;SDS011;54672;46.096;14.470;2023-04-29T12:03:06;5.47;;;2.60;;
67867;SDS011;54672;46.096;14.470;2023-04-29T12:05:38;4.32;;;2.30;;
67867;SDS011;54672;46.096;14.470;2023-04-29T12:08:05;5.10;;;2.50;;
67867;SDS011;54672;46.096;14.470;2023-04-29T12:10:31;4.65;;;2.67;;
67867;SDS011;54672;46.096;14.470;2023-04-29T12:13:00;4.07;;;2.60;;
67867;SDS011;54672;46.096;14.470;2023-04-29T12:15:25;5.13;;;2.30;;
67867;SDS011;54672;46.096;14.470;2023-04-29T12:17:53;4.68;;;2.30;;
67867;SDS011;54672;46.096;14.470;2023-04-29T12:20:19;6.82;;;2.80;;
67867;SDS011;54672;46.096;14.470;2023-04-29T12:22:45;4.28;;;2.17;;
67867;SDS011;54672;46.096;14.470;2023-04-29T12:25:10;2.55;;;1.73;;
67867;SDS011;54672;46.096;14.470;2023-04-29T12:27:38;3.83;;;2.10;;
67867;SDS011;54672;46.096;14.470;2023-04-29T12:30:05;3.25;;;1.90;;
67867;SDS011;54672;46.096;14.470;2023-04-29T12:32:33;3.55;;;2.00;;
67867;SDS011;54672;46.096;14.470;2023-04-29T12:34:58;3.03;;;2.00;;
67867;SDS011;54672;46.096;14.470;2023-04-29T12:37:24;3.22;;;2.00;;
67867;SDS011;54672;46.096;14.470;2023-04-29T12:39:50;3.15;;;1.80;;
67867;SDS011;54672;46.096;14.470;2023-04-29T12:42:16;5.63;;;2.17;;
67867;SDS011;54672;46.096;14.470;2023-04-29T12:44:45;5.63;;;2.03;;
67867;SDS011;54672;46.096;14.470;2023-04-29T12:47:11;4.28;;;2.10;;
67867;SDS011;54672;46.096;14.470;2023-04-29T12:49:44;5.07;;;1.80;;
67867;SDS011;54672;46.096;14.470;2023-04-29T12:54:36;5.13;;;2.38;;
67867;SDS011;54672;46.096;14.470;2023-04-29T12:57:06;2.65;;;1.77;;
67867;SDS011;54672;46.096;14.470;2023-04-29T12:59:32;3.15;;;1.90;;
67867;SDS011;54672;46.096;14.470;2023-04-29T13:01:57;3.20;;;1.90;;
67867;SDS011;54672;46.096;14.470;2023-04-29T13:04:23;3.00;;;1.73;;
67867;SDS011;54672;46.096;14.470;2023-04-29T13:06:48;3.13;;;2.20;;
67867;SDS011;54672;46.096;14.470;2023-04-29T13:09:18;4.00;;;2.10;;
67867;SDS011;54672;46.096;14.470;2023-04-29T13:11:43;3.95;;;2.17;;
67867;SDS011;54672;46.096;14.470;2023-04-29T13:14:08;3.75;;;2.20;;
67867;SDS011;54672;46.096;14.470;2023-04-29T13:16:35;4.65;;;2.00;;
67867;SDS011;54672;46.096;14.470;2023-04-29T13:19:00;4.35;;;2.30;;
67867;SDS011;54672;46.096;14.470;2023-04-29T13:21:26;4.10;;;2.33;;
67867;SDS011;54672;46.096;14.470;2023-04-29T13:23:52;3.40;;;2.20;;
67867;SDS011;54672;46.096;14.470;2023-04-29T13:26:18;4.63;;;2.50;;
67867;SDS011;54672;46.096;14.470;2023-04-29T13:28:43;3.17;;;2.40;;
67867;SDS011;54672;46.096;14.470;2023-04-29T13:31:09;5.07;;;2.17;;
67867;SDS011;54672;46.096;14.470;2023-04-29T13:33:34;4.95;;;2.17;;
67867;SDS011;54672;46.096;14.470;2023-04-29T13:36:00;3.30;;;2.40;;
67867;SDS011;54672;46.096;14.470;2023-04-29T13:38:25;4.30;;;2.30;;
67867;SDS011;54672;46.096;14.470;2023-04-29T13:40:50;3.78;;;2.28;;
67867;SDS011;54672;46.096;14.470;2023-04-29T13:43:16;3.65;;;2.30;;
67867;SDS011;54672;46.096;14.470;2023-04-29T13:45:41;6.25;;;2.63;;
67867;SDS011;54672;46.096;14.470;2023-04-29T13:48:06;4.07;;;2.33;;
67867;SDS011;54672;46.096;14.470;2023-04-29T13:50:32;4.68;;;2.53;;
67867;SDS011;54672;46.096;14.470;2023-04-29T13:52:58;4.35;;;2.50;;
67867;SDS011;54672;46.096;14.470;2023-04-29T13:55:24;5.63;;;2.60;;
67867;SDS011;54672;46.096;14.470;2023-04-29T13:57:49;4.20;;;2.50;;
67867;SDS011;54672;46.096;14.470;2023-04-29T14:00:15;3.40;;;2.50;;
67867;SDS011;54672;46.096;14.470;2023-04-29T14:02:41;4.28;;;2.22;;
67867;SDS011;54672;46.096;14.470;2023-04-29T14:05:07;5.38;;;2.38;;
67867;SDS011;54672;46.096;14.470;2023-04-29T14:07:34;3.45;;;2.45;;
67867;SDS011;54672;46.096;14.470;2023-04-29T14:09:59;3.78;;;2.53;;
67867;SDS011;54672;46.096;14.470;2023-04-29T14:12:25;4.43;;;2.60;;
67867;SDS011;54672;46.096;14.470;2023-04-29T14:14:50;3.97;;;2.17;;
67867;SDS011;54672;46.096;14.470;2023-04-29T14:17:16;4.68;;;2.35;;
67867;SDS011;54672;46.096;14.470;2023-04-29T14:19:41;4.47;;;2.20;;
67867;SDS011;54672;46.096;14.470;2023-04-29T14:22:06;3.60;;;2.40;;
67867;SDS011;54672;46.096;14.470;2023-04-29T14:24:32;4.47;;;2.40;;
67867;SDS011;54672;46.096;14.470;2023-04-29T14:26:57;4.18;;;2.10;;
67867;SDS011;54672;46.096;14.470;2023-04-29T14:29:23;3.85;;;2.20;;
67867;SDS011;54672;46.096;14.470;2023-04-29T14:31:48;3.47;;;2.50;;
67867;SDS011;54672;46.096;14.470;2023-04-29T14:34:14;4.57;;;2.47;;
67867;SDS011;54672;46.096;14.470;2023-04-29T14:36:39;4.53;;;2.30;;
67867;SDS011;54672;46.096;14.470;2023-04-29T14:39:05;5.65;;;2.53;;
67867;SDS011;54672;46.096;14.470;2023-04-29T14:41:30;3.58;;;2.45;;
67867;SDS011;54672;46.096;14.470;2023-04-29T14:43:55;3.13;;;2.33;;
67867;SDS011;54672;46.096;14.470;2023-04-29T14:46:21;3.47;;;2.58;;
67867;SDS011;54672;46.096;14.470;2023-04-29T14:48:47;3.95;;;2.47;;
67867;SDS011;54672;46.096;14.470;2023-04-29T14:51:13;3.55;;;2.20;;
67867;SDS011;54672;46.096;14.470;2023-04-29T14:53:39;3.88;;;2.33;;
67867;SDS011;54672;46.096;14.470;2023-04-29T14:56:04;2.95;;;2.40;;
67867;SDS011;54672;46.096;14.470;2023-04-29T14:58:31;3.70;;;2.35;;
67867;SDS011;54672;46.096;14.470;2023-04-29T15:00:57;4.93;;;2.38;;
67867;SDS011;54672;46.096;14.470;2023-04-29T15:03:22;3.72;;;2.70;;